<?xml version='1.0' encoding='UTF-8'?><gpx version="1.1" creator="JPX - https://github.com/jenetics/jpx" xmlns="http://www.topografix.com/GPX/1/1"><trk><trkseg><trkpt lat="43.3502006" lon="11.9888061"><ele>310.0</ele><time>2026-04-18T07:26:50.151Z</time></trkpt><trkpt lat="43.355281" lon="11.9759998"><ele>290.0</ele><time>2026-04-18T07:30:09.044Z</time></trkpt><trkpt lat="43.3536767" lon="11.9792756"><ele>287.0</ele><time>2026-04-18T07:30:15.459Z</time></trkpt><trkpt lat="43.3451677" lon="11.9746948"><ele>293.0</ele><time>2026-04-18T07:31:26.051Z</time></trkpt><trkpt lat="43.3434503" lon="11.9706547"><ele>279.0</ele><time>2026-04-18T07:32:49.534Z</time></trkpt><trkpt lat="43.3429783" lon="11.9673123"><ele>309.0</ele><time>2026-04-18T07:33:21.757Z</time></trkpt><trkpt lat="43.3385102" lon="11.9586397"><ele>268.0</ele><time>2026-04-18T07:36:22.687Z</time></trkpt><trkpt lat="43.3412414" lon="11.9545734"><ele>262.0</ele><time>2026-04-18T07:36:35.58Z</time></trkpt><trkpt lat="43.3385024" lon="11.9460774"><ele>265.0</ele><time>2026-04-18T07:38:50.462Z</time></trkpt><trkpt lat="43.3387546" lon="11.9480582"><ele>264.0</ele><time>2026-04-18T07:38:56.875Z</time></trkpt><trkpt lat="43.339131" lon="11.9472142"><ele>262.0</ele><time>2026-04-18T07:39:09.712Z</time></trkpt><trkpt lat="43.3385409" lon="11.9460921"><ele>264.0</ele><time>2026-04-18T07:39:16.165Z</time></trkpt><trkpt lat="43.3400032" lon="11.9450278"><ele>262.0</ele><time>2026-04-18T07:40:01.06Z</time></trkpt><trkpt lat="43.3407189" lon="11.9442762"><ele>264.0</ele><time>2026-04-18T07:40:13.994Z</time></trkpt><trkpt lat="43.3407801" lon="11.9455991"><ele>262.0</ele><time>2026-04-18T07:40:33.369Z</time></trkpt><trkpt lat="43.3407192" lon="11.9442811"><ele>262.0</ele><time>2026-04-18T07:40:46.36Z</time></trkpt><trkpt lat="43.3412539" lon="11.9406323"><ele>265.0</ele><time>2026-04-18T07:41:51.012Z</time></trkpt><trkpt lat="43.3422094" lon="11.9395441"><ele>265.0</ele><time>2026-04-18T07:41:57.557Z</time></trkpt><trkpt lat="43.3422601" lon="11.9394553"><ele>265.0</ele><time>2026-04-18T07:42:04.052Z</time></trkpt><trkpt lat="43.3407751" lon="11.9393119"><ele>265.0</ele><time>2026-04-18T07:42:16.997Z</time></trkpt><trkpt lat="43.3422888" lon="11.9394212"><ele>261.0</ele><time>2026-04-18T07:42:29.872Z</time></trkpt><trkpt lat="43.3419745" lon="11.9359326"><ele>264.0</ele><time>2026-04-18T07:43:20.013Z</time></trkpt><trkpt lat="43.3423605" lon="11.9349337"><ele>263.0</ele><time>2026-04-18T07:43:59.992Z</time></trkpt><trkpt lat="43.3417846" lon="11.9333063"><ele>263.0</ele><time>2026-04-18T07:44:25.847Z</time></trkpt><trkpt lat="43.3415963" lon="11.9327889"><ele>263.0</ele><time>2026-04-18T07:44:32.285Z</time></trkpt><trkpt lat="43.3415553" lon="11.9326982"><ele>263.0</ele><time>2026-04-18T07:44:38.726Z</time></trkpt><trkpt lat="43.3403754" lon="11.9312826"><ele>264.0</ele><time>2026-04-18T07:45:04.657Z</time></trkpt><trkpt lat="43.3409951" lon="11.9314205"><ele>264.0</ele><time>2026-04-18T07:45:11.185Z</time></trkpt><trkpt lat="43.3410182" lon="11.9315151"><ele>264.0</ele><time>2026-04-18T07:45:17.724Z</time></trkpt><trkpt lat="43.3408476" lon="11.9311434"><ele>264.0</ele><time>2026-04-18T07:45:24.235Z</time></trkpt><trkpt lat="43.3408053" lon="11.9309579"><ele>264.0</ele><time>2026-04-18T07:45:30.697Z</time></trkpt><trkpt lat="43.3400472" lon="11.9304129"><ele>260.0</ele><time>2026-04-18T07:45:56.618Z</time></trkpt><trkpt lat="43.3401697" lon="11.9277759"><ele>260.0</ele><time>2026-04-18T07:46:22.826Z</time></trkpt><trkpt lat="43.3400204" lon="11.9277816"><ele>260.0</ele><time>2026-04-18T07:46:29.377Z</time></trkpt><trkpt lat="43.3399453" lon="11.9276464"><ele>260.0</ele><time>2026-04-18T07:46:36.003Z</time></trkpt><trkpt lat="43.3393383" lon="11.9257218"><ele>258.0</ele><time>2026-04-18T07:47:27.452Z</time></trkpt><trkpt lat="43.3391753" lon="11.9253681"><ele>256.0</ele><time>2026-04-18T07:48:04.704Z</time></trkpt><trkpt lat="43.3370444" lon="11.9272261"><ele>265.0</ele><time>2026-04-18T07:48:12.6Z</time></trkpt><trkpt lat="43.3386767" lon="11.9244855"><ele>256.0</ele><time>2026-04-18T07:48:25.504Z</time></trkpt><trkpt lat="43.3334147" lon="11.923707"><ele>271.0</ele><time>2026-04-18T07:48:51.265Z</time></trkpt><trkpt lat="43.3381323" lon="11.9228041"><ele>271.0</ele><time>2026-04-18T07:49:04.14Z</time></trkpt><trkpt lat="43.3384872" lon="11.9225851"><ele>271.0</ele><time>2026-04-18T07:49:10.618Z</time></trkpt><trkpt lat="43.3384656" lon="11.9221886"><ele>270.66666666666663</ele><time>2026-04-18T07:49:17.111Z</time></trkpt><trkpt lat="43.3384664" lon="11.922021"><ele>270.3333333333333</ele><time>2026-04-18T07:49:23.54Z</time></trkpt><trkpt lat="43.3385121" lon="11.9216089"><ele>270.0</ele><time>2026-04-18T07:49:29.959Z</time></trkpt><trkpt lat="43.3386135" lon="11.921169"><ele>270.0</ele><time>2026-04-18T07:49:36.453Z</time></trkpt><trkpt lat="43.3391139" lon="11.9206803"><ele>255.0</ele><time>2026-04-18T07:50:02.272Z</time></trkpt><trkpt lat="43.3379629" lon="11.9193364"><ele>269.0</ele><time>2026-04-18T07:50:28.308Z</time></trkpt><trkpt lat="43.3400666" lon="11.919269"><ele>263.0</ele><time>2026-04-18T07:50:34.835Z</time></trkpt><trkpt lat="43.3401822" lon="11.9186534"><ele>263.0</ele><time>2026-04-18T07:50:41.472Z</time></trkpt><trkpt lat="43.3402701" lon="11.9185419"><ele>263.0</ele><time>2026-04-18T07:50:48.069Z</time></trkpt><trkpt lat="43.340469" lon="11.9183976"><ele>263.0</ele><time>2026-04-18T07:50:54.68Z</time></trkpt><trkpt lat="43.3404195" lon="11.9183345"><ele>263.0</ele><time>2026-04-18T07:51:01.283Z</time></trkpt><trkpt lat="43.3405181" lon="11.9181215"><ele>265.0</ele><time>2026-04-18T07:51:07.874Z</time></trkpt><trkpt lat="43.341011" lon="11.917732"><ele>263.66666666666663</ele><time>2026-04-18T07:51:14.441Z</time></trkpt><trkpt lat="43.3411562" lon="11.9175225"><ele>262.3333333333333</ele><time>2026-04-18T07:51:21.007Z</time></trkpt><trkpt lat="43.3411997" lon="11.9174423"><ele>261.0</ele><time>2026-04-18T07:51:27.627Z</time></trkpt><trkpt lat="43.3413189" lon="11.9171669"><ele>262.3333333333333</ele><time>2026-04-18T07:51:34.137Z</time></trkpt><trkpt lat="43.3414636" lon="11.9171614"><ele>263.66666666666663</ele><time>2026-04-18T07:51:40.684Z</time></trkpt><trkpt lat="43.3415742" lon="11.9173731"><ele>265.0</ele><time>2026-04-18T07:51:53.929Z</time></trkpt><trkpt lat="43.3415917" lon="11.9168007"><ele>265.0</ele><time>2026-04-18T07:52:00.538Z</time></trkpt><trkpt lat="43.3419482" lon="11.9165593"><ele>265.0</ele><time>2026-04-18T07:52:13.89Z</time></trkpt><trkpt lat="43.3420634" lon="11.9167536"><ele>266.5</ele><time>2026-04-18T07:52:20.545Z</time></trkpt><trkpt lat="43.3423264" lon="11.9168513"><ele>268.0</ele><time>2026-04-18T07:52:27.161Z</time></trkpt><trkpt lat="43.3423735" lon="11.916316"><ele>268.3333333333333</ele><time>2026-04-18T07:52:47.038Z</time></trkpt><trkpt lat="43.3425977" lon="11.9161073"><ele>268.6666666666667</ele><time>2026-04-18T07:52:53.701Z</time></trkpt><trkpt lat="43.342494" lon="11.9160074"><ele>269.0</ele><time>2026-04-18T07:53:00.436Z</time></trkpt><trkpt lat="43.3427335" lon="11.9157552"><ele>269.0</ele><time>2026-04-18T07:53:07.127Z</time></trkpt><trkpt lat="43.3429215" lon="11.9157798"><ele>269.0</ele><time>2026-04-18T07:53:20.536Z</time></trkpt><trkpt lat="43.3431451" lon="11.9161322"><ele>270.5</ele><time>2026-04-18T07:53:27.182Z</time></trkpt><trkpt lat="43.3432477" lon="11.9162545"><ele>272.0</ele><time>2026-04-18T07:53:33.898Z</time></trkpt><trkpt lat="43.3433369" lon="11.9163273"><ele>273.5</ele><time>2026-04-18T07:53:40.657Z</time></trkpt><trkpt lat="43.3434775" lon="11.9163944"><ele>275.0</ele><time>2026-04-18T07:53:47.352Z</time></trkpt><trkpt lat="43.3435833" lon="11.916423"><ele>275.0</ele><time>2026-04-18T07:53:54.014Z</time></trkpt><trkpt lat="43.3436922" lon="11.916451"><ele>275.0</ele><time>2026-04-18T07:54:00.601Z</time></trkpt><trkpt lat="43.3437862" lon="11.916506"><ele>275.0</ele><time>2026-04-18T07:54:07.274Z</time></trkpt><trkpt lat="43.3438507" lon="11.9165845"><ele>275.0</ele><time>2026-04-18T07:54:13.877Z</time></trkpt><trkpt lat="43.3441085" lon="11.916924"><ele>276.75</ele><time>2026-04-18T07:54:20.517Z</time></trkpt><trkpt lat="43.3442218" lon="11.9169507"><ele>278.5</ele><time>2026-04-18T07:54:27.288Z</time></trkpt><trkpt lat="43.3443541" lon="11.9170161"><ele>280.25</ele><time>2026-04-18T07:57:08.594Z</time></trkpt><trkpt lat="43.344515" lon="11.9170163"><ele>282.0</ele><time>2026-04-18T07:57:15.261Z</time></trkpt><trkpt lat="43.345118" lon="11.9173198"><ele>285.0</ele><time>2026-04-18T07:57:41.954Z</time></trkpt><trkpt lat="43.3451849" lon="11.9173835"><ele>288.0</ele><time>2026-04-18T07:58:08.471Z</time></trkpt><trkpt lat="43.3451468" lon="11.9181487"><ele>287.5</ele><time>2026-04-18T07:58:14.953Z</time></trkpt><trkpt lat="43.3449118" lon="11.9182762"><ele>287.0</ele><time>2026-04-18T07:58:21.488Z</time></trkpt><trkpt lat="43.3447044" lon="11.9182572"><ele>289.0</ele><time>2026-04-18T07:58:28.014Z</time></trkpt><trkpt lat="43.3446949" lon="11.9185561"><ele>291.0</ele><time>2026-04-18T07:58:34.619Z</time></trkpt><trkpt lat="43.3446362" lon="11.9187955"><ele>293.0</ele><time>2026-04-18T07:58:41.277Z</time></trkpt><trkpt lat="43.3444833" lon="11.9192573"><ele>295.25</ele><time>2026-04-18T07:58:54.511Z</time></trkpt><trkpt lat="43.3444527" lon="11.9193818"><ele>297.5</ele><time>2026-04-18T07:59:01.134Z</time></trkpt><trkpt lat="43.344384" lon="11.919586"><ele>299.75</ele><time>2026-04-18T07:59:07.737Z</time></trkpt><trkpt lat="43.3443463" lon="11.9197736"><ele>302.0</ele><time>2026-04-18T07:59:14.233Z</time></trkpt><trkpt lat="43.3443355" lon="11.9199962"><ele>304.5</ele><time>2026-04-18T07:59:20.874Z</time></trkpt><trkpt lat="43.3442546" lon="11.9201834"><ele>307.0</ele><time>2026-04-18T07:59:27.493Z</time></trkpt><trkpt lat="43.3442348" lon="11.9203194"><ele>309.5</ele><time>2026-04-18T07:59:34.234Z</time></trkpt><trkpt lat="43.3442384" lon="11.9205435"><ele>312.0</ele><time>2026-04-18T07:59:40.87Z</time></trkpt><trkpt lat="43.3442186" lon="11.9206711"><ele>312.0</ele><time>2026-04-18T07:59:47.479Z</time></trkpt><trkpt lat="43.344158" lon="11.9208045"><ele>312.0</ele><time>2026-04-18T07:59:54.16Z</time></trkpt><trkpt lat="43.3440935" lon="11.9210509"><ele>312.0</ele><time>2026-04-18T08:00:00.825Z</time></trkpt><trkpt lat="43.3437601" lon="11.9212225"><ele>315.6666666666667</ele><time>2026-04-18T08:00:07.497Z</time></trkpt><trkpt lat="43.3438141" lon="11.9213293"><ele>319.33333333333337</ele><time>2026-04-18T08:01:27.208Z</time></trkpt><trkpt lat="43.3438766" lon="11.9214684"><ele>323.0</ele><time>2026-04-18T08:01:33.845Z</time></trkpt><trkpt lat="43.3440346" lon="11.921763"><ele>323.0</ele><time>2026-04-18T08:01:40.438Z</time></trkpt><trkpt lat="43.3440853" lon="11.9220909"><ele>323.0</ele><time>2026-04-18T08:01:47.084Z</time></trkpt><trkpt lat="43.3443016" lon="11.9223392"><ele>323.0</ele><time>2026-04-18T08:02:00.307Z</time></trkpt><trkpt lat="43.3440142" lon="11.921922"><ele>323.0</ele><time>2026-04-18T08:02:20.053Z</time></trkpt><trkpt lat="43.34499" lon="11.9232045"><ele>323.0</ele><time>2026-04-18T08:02:32.989Z</time></trkpt><trkpt lat="43.344028" lon="11.9219427"><ele>306.0</ele><time>2026-04-18T08:02:59.256Z</time></trkpt><trkpt lat="43.3455295" lon="11.9244299"><ele>311.5</ele><time>2026-04-18T08:03:18.814Z</time></trkpt><trkpt lat="43.3458243" lon="11.9246586"><ele>317.0</ele><time>2026-04-18T08:03:25.319Z</time></trkpt><trkpt lat="43.346127" lon="11.9249181"><ele>315.5</ele><time>2026-04-18T08:03:43.293Z</time></trkpt><trkpt lat="43.346479" lon="11.9251661"><ele>314.0</ele><time>2026-04-18T08:03:51.188Z</time></trkpt><trkpt lat="43.3466571" lon="11.9252535"><ele>314.0</ele><time>2026-04-18T08:03:57.759Z</time></trkpt><trkpt lat="43.3467255" lon="11.9252856"><ele>314.0</ele><time>2026-04-18T08:04:04.289Z</time></trkpt><trkpt lat="43.348486" lon="11.9250644"><ele>317.0</ele><time>2026-04-18T08:05:35.327Z</time></trkpt><trkpt lat="43.3484479" lon="11.925543"><ele>320.0</ele><time>2026-04-18T08:05:41.852Z</time></trkpt><trkpt lat="43.3484851" lon="11.9258468"><ele>380.0</ele><time>2026-04-18T08:05:48.375Z</time></trkpt><trkpt lat="43.3498782" lon="11.9240587"><ele>335.0</ele><time>2026-04-18T08:06:14.553Z</time></trkpt><trkpt lat="43.3496824" lon="11.925453"><ele>380.0</ele><time>2026-04-18T08:06:21.034Z</time></trkpt><trkpt lat="43.3498773" lon="11.9240612"><ele>350.0</ele><time>2026-04-18T08:07:06.23Z</time></trkpt><trkpt lat="43.3511375" lon="11.9245531"><ele>380.0</ele><time>2026-04-18T08:07:38.607Z</time></trkpt><trkpt lat="43.3499198" lon="11.9241168"><ele>376.0</ele><time>2026-04-18T08:07:57.86Z</time></trkpt><trkpt lat="43.3505416" lon="11.9241403"><ele>350.0</ele><time>2026-04-18T08:08:29.943Z</time></trkpt><trkpt lat="43.351107" lon="11.9245044"><ele>350.0</ele><time>2026-04-18T08:08:36.353Z</time></trkpt><trkpt lat="43.3510028" lon="11.9244956"><ele>350.0</ele><time>2026-04-18T08:08:49.293Z</time></trkpt><trkpt lat="43.3498772" lon="11.9240551"><ele>314.0</ele><time>2026-04-18T08:08:55.677Z</time></trkpt><trkpt lat="43.3505537" lon="11.9309243"><ele>264.0</ele><time>2026-04-18T08:09:08.477Z</time></trkpt><trkpt lat="43.342036" lon="11.9293916"><ele>314.0</ele><time>2026-04-18T08:09:14.877Z</time></trkpt><trkpt lat="43.3505539" lon="11.9309214"><ele>270.0</ele><time>2026-04-18T08:09:32.731Z</time></trkpt><trkpt lat="43.3438395" lon="11.9373637"><ele>352.0</ele><time>2026-04-18T08:09:47.001Z</time></trkpt><trkpt lat="43.3526353" lon="11.9307592"><ele>380.0</ele><time>2026-04-18T08:11:10.505Z</time></trkpt><trkpt lat="43.3498773" lon="11.9240612"><ele>351.0</ele><time>2026-04-18T08:11:49.119Z</time></trkpt><trkpt lat="43.3524942" lon="11.9315159"><ele>366.0</ele><time>2026-04-18T08:12:08.667Z</time></trkpt><trkpt lat="43.3527824" lon="11.9332444"><ele>270.0</ele><time>2026-04-18T08:12:41.536Z</time></trkpt><trkpt lat="43.3438275" lon="11.9373513"><ele>264.0</ele><time>2026-04-18T08:13:20.538Z</time></trkpt><trkpt lat="43.3420445" lon="11.9293998"><ele>426.0</ele><time>2026-04-18T08:15:28.88Z</time></trkpt><trkpt lat="43.3568307" lon="11.9414994"><ele>262.0</ele><time>2026-04-18T08:20:56.678Z</time></trkpt><trkpt lat="43.3407372" lon="11.9442453"><ele>273.0</ele><time>2026-04-18T08:26:18.632Z</time></trkpt><trkpt lat="43.3447521" lon="11.9403461"><ele>508.0</ele><time>2026-04-18T08:28:20.878Z</time></trkpt><trkpt lat="43.3593616" lon="11.9498322"><ele>479.0</ele><time>2026-04-18T08:29:38.518Z</time></trkpt><trkpt lat="43.3578098" lon="11.9491687"><ele>490.5</ele><time>2026-04-18T08:34:42.726Z</time></trkpt><trkpt lat="43.3577287" lon="11.949285"><ele>502.0</ele><time>2026-04-18T08:34:49.193Z</time></trkpt><trkpt lat="43.3545993" lon="11.961855"><ele>572.0</ele><time>2026-04-18T08:38:03.646Z</time></trkpt><trkpt lat="43.3678721" lon="11.9517924"><ele>479.0</ele><time>2026-04-18T08:52:59.971Z</time></trkpt><trkpt lat="43.3578119" lon="11.94917"><ele>476.0</ele><time>2026-04-18T08:58:20.219Z</time></trkpt><trkpt lat="43.3592313" lon="11.9483294"><ele>426.0</ele><time>2026-04-18T08:58:51.071Z</time></trkpt><trkpt lat="43.3567821" lon="11.9414912"><ele>366.0</ele><time>2026-04-18T09:00:53Z</time></trkpt><trkpt lat="43.3526908" lon="11.9332689"><ele>351.0</ele><time>2026-04-18T09:03:08.924Z</time></trkpt><trkpt lat="43.3530363" lon="11.9315177"><ele>352.0</ele><time>2026-04-18T09:03:28.131Z</time></trkpt><trkpt lat="43.3526353" lon="11.9307592"><ele>380.0</ele><time>2026-04-18T09:03:34.49Z</time></trkpt><trkpt lat="43.3498729" lon="11.924061"><ele>368.0</ele><time>2026-04-18T09:04:57.876Z</time></trkpt><trkpt lat="43.351406" lon="11.9257343"><ele>320.0</ele><time>2026-04-18T09:05:15.748Z</time></trkpt><trkpt lat="43.348425" lon="11.9250672"><ele>320.0</ele><time>2026-04-18T09:06:02.312Z</time></trkpt><trkpt lat="43.348482" lon="11.9258427"><ele>320.0</ele><time>2026-04-18T09:06:15.338Z</time></trkpt><trkpt lat="43.3472296" lon="11.925571"><ele>314.0</ele><time>2026-04-18T09:06:21.854Z</time></trkpt><trkpt lat="43.3467278" lon="11.9252798"><ele>314.0</ele><time>2026-04-18T09:06:28.284Z</time></trkpt><trkpt lat="43.3466364" lon="11.9251881"><ele>314.0</ele><time>2026-04-18T09:06:34.814Z</time></trkpt><trkpt lat="43.3458335" lon="11.9246645"><ele>306.0</ele><time>2026-04-18T09:06:41.268Z</time></trkpt><trkpt lat="43.3454626" lon="11.924262"><ele>264.0</ele><time>2026-04-18T09:06:54.254Z</time></trkpt><trkpt lat="43.3420616" lon="11.9293742"><ele>329.0</ele><time>2026-04-18T09:07:00.769Z</time></trkpt><trkpt lat="43.34499" lon="11.9231983"><ele>329.0</ele><time>2026-04-18T09:07:07.243Z</time></trkpt><trkpt lat="43.3447847" lon="11.9231242"><ele>329.0</ele><time>2026-04-18T09:07:13.792Z</time></trkpt><trkpt lat="43.3438402" lon="11.9215971"><ele>329.0</ele><time>2026-04-18T09:07:20.283Z</time></trkpt><trkpt lat="43.3449916" lon="11.9232044"><ele>293.0</ele><time>2026-04-18T09:07:33.226Z</time></trkpt><trkpt lat="43.3451036" lon="11.9251052"><ele>264.0</ele><time>2026-04-18T09:07:52.789Z</time></trkpt><trkpt lat="43.3420728" lon="11.9293919"><ele>275.0</ele><time>2026-04-18T09:07:59.318Z</time></trkpt><trkpt lat="43.3422277" lon="11.926595"><ele>262.0</ele><time>2026-04-18T09:08:51.063Z</time></trkpt><trkpt lat="43.3410996" lon="11.9277262"><ele>271.0</ele><time>2026-04-18T09:08:57.573Z</time></trkpt><trkpt lat="43.3431838" lon="11.9281166"><ele>271.0</ele><time>2026-04-18T09:09:04.046Z</time></trkpt><trkpt lat="43.3432785" lon="11.9282479"><ele>271.0</ele><time>2026-04-18T09:09:10.629Z</time></trkpt><trkpt lat="43.3463175" lon="11.9269579"><ele>271.0</ele><time>2026-04-18T09:09:30.403Z</time></trkpt><trkpt lat="43.343314" lon="11.9282322"><ele>271.5</ele><time>2026-04-18T09:09:43.354Z</time></trkpt><trkpt lat="43.3431092" lon="11.9284302"><ele>272.0</ele><time>2026-04-18T09:09:56.314Z</time></trkpt><trkpt lat="43.344211" lon="11.9307953"><ele>272.0</ele><time>2026-04-18T09:10:09.328Z</time></trkpt><trkpt lat="43.3446196" lon="11.9315915"><ele>271.0</ele><time>2026-04-18T09:10:15.782Z</time></trkpt><trkpt lat="43.3439124" lon="11.932446"><ele>266.0</ele><time>2026-04-18T09:10:35.363Z</time></trkpt><trkpt lat="43.343822" lon="11.9331559"><ele>266.0</ele><time>2026-04-18T09:10:41.972Z</time></trkpt><trkpt lat="43.3438417" lon="11.9336271"><ele>266.0</ele><time>2026-04-18T09:10:48.497Z</time></trkpt><trkpt lat="43.343856" lon="11.9341047"><ele>270.0</ele><time>2026-04-18T09:11:08.099Z</time></trkpt><trkpt lat="43.3434052" lon="11.9355377"><ele>261.0</ele><time>2026-04-18T09:11:14.553Z</time></trkpt><trkpt lat="43.3419768" lon="11.9359284"><ele>265.0</ele><time>2026-04-18T09:12:30.344Z</time></trkpt><trkpt lat="43.3422599" lon="11.9394502"><ele>265.0</ele><time>2026-04-18T09:13:16.799Z</time></trkpt><trkpt lat="43.3422104" lon="11.9395475"><ele>265.0</ele><time>2026-04-18T09:13:23.285Z</time></trkpt><trkpt lat="43.3412543" lon="11.9406293"><ele>264.0</ele><time>2026-04-18T09:13:48.977Z</time></trkpt><trkpt lat="43.3407831" lon="11.9456245"><ele>263.0</ele><time>2026-04-18T09:14:47.164Z</time></trkpt><trkpt lat="43.3401118" lon="11.94505"><ele>268.0</ele><time>2026-04-18T09:16:04.276Z</time></trkpt><trkpt lat="43.3412446" lon="11.9545715"><ele>309.0</ele><time>2026-04-18T09:22:34.827Z</time></trkpt><trkpt lat="43.3385239" lon="11.9586504"><ele>318.0</ele><time>2026-04-18T09:22:47.632Z</time></trkpt><trkpt lat="43.3397067" lon="11.960342"><ele>279.0</ele><time>2026-04-18T09:25:34.806Z</time></trkpt><trkpt lat="43.3429797" lon="11.9673148"><ele>293.0</ele><time>2026-04-18T09:29:20.166Z</time></trkpt><trkpt lat="43.3434508" lon="11.9706581"><ele>288.0</ele><time>2026-04-18T09:30:05.467Z</time></trkpt><trkpt lat="43.344719" lon="11.973415"><ele>288.0</ele><time>2026-04-18T09:32:40.16Z</time></trkpt><trkpt lat="43.3447555" lon="11.9735827"><ele>288.0</ele><time>2026-04-18T09:32:46.562Z</time></trkpt><trkpt lat="43.3458677" lon="11.9755421"><ele>290.0</ele><time>2026-04-18T09:33:31.584Z</time></trkpt><trkpt lat="43.3536709" lon="11.9792661"><ele>303.0</ele><time>2026-04-18T09:40:13.418Z</time></trkpt><trkpt lat="43.3489034" lon="11.9880682"><ele>303.0</ele><time>2026-04-18T09:41:27.269Z</time></trkpt></trkseg></trk></gpx>